• Join FlightAware (Why Join?)
  • Login
  • US Flag 
05:28AM EDT


 

Airport Tracker/Info


-or-


 

Live Flight TrackerFlight Track Log ✈ SWA419 ✈ 01-Oct-2013 ✈ KSJC - KLAX

Flight Track Log - Related Links

Times and Time Zones

All times are in EDT time to prevent confusion due to time zone crossing. See the SWA419 flight status page for this flight to view local times or setup timezone preferences in your user account.

Time Position Orientation Groundspeed Altitude Reporting Facility
EDT Latitude Longitude Course Direction KTS MPH feet Rate Location/Type
12:53PM 37.4000 -121.9667 139° Southeast 195 224 1,900  Level Northern Cal TRACON
12:54PM 37.4333 -121.9333 38° Northeast 248 285 4,300 2,700 Climbing Northern Cal TRACON
12:55PM 37.4000 -121.8667 122° Southeast 258 297 7,300 2,820 Climbing Northern Cal TRACON
12:56PM 37.3333 -121.8000 142° Southeast 298 343 10,000 2,520 Climbing Northern Cal TRACON
12:57PM 37.2833 -121.7333 133° Southeast 334 384 12,200 2,220 Climbing Northern Cal TRACON
12:58PM 37.2511 -121.7011 141° Southeast 341 392 13,200 2,640 Climbing Oakland Center
12:59PM 36.7186 -121.2340 139° Southeast  Level Estimated
12:59PM 37.1758 -121.6144 137° Southeast 368 423 16,300  Level Oakland Center
01:00PM 37.0947 -121.5261 139° Southeast 388 447 18,300 2,400 Climbing Oakland Center
01:01PM 37.0069 -121.4314 139° Southeast 403 464 21,300 2,460 Climbing Oakland Center
01:02PM 36.9233 -121.3392 139° Southeast 403 464 23,400 1,920 Climbing Oakland Center
01:03PM 36.8339 -121.2425 139° Southeast 424 488 25,300 1,860 Climbing Oakland Center
01:04PM 36.7294 -121.1328 140° Southeast 428 493 27,300 1,620 Climbing Oakland Center
01:05PM 36.6364 -121.0300 138° Southeast 441 507 28,700 1,500 Climbing Oakland Center
01:06PM 36.5406 -120.9286 140° Southeast 451 519 30,400 1,680 Climbing Oakland Center
01:07PM 36.4458 -120.8272 139° Southeast 450 518 32,200 1,680 Climbing Oakland Center
01:08PM 36.3542 -120.7267 139° Southeast 442 509 33,900 1,560 Climbing Oakland Center
01:09PM 36.2622 -120.6297 140° Southeast 435 501 35,500 1,260 Climbing Oakland Center
01:10PM 36.1725 -120.5336 139° Southeast 429 494 36,600 720 Climbing Oakland Center
01:11PM 36.0656 -120.4175 139° Southeast 426 490 37,000 180 Climbing Oakland Center
01:12PM 35.9747 -120.3222 140° Southeast 428 493 37,000  Level Oakland Center
01:13PM 35.8839 -120.2278 140° Southeast 426 490 37,000  Level Oakland Center
01:14PM 35.7936 -120.1319 139° Southeast 426 490 37,000  Level Oakland Center
01:15PM 35.7031 -120.0364 139° Southeast 426 490 37,000 -540 Level Oakland Center
01:16PM 35.6106 -119.9425 140° Southeast 427 491 36,000 -1,020 Descending Oakland Center
01:17PM 35.5094 -119.8581 146° Southeast 433 498 35,000 -960 Descending Oakland Center
01:18PM 35.4106 -119.7733 145° Southeast 432 497 34,100 -960 Descending Oakland Center
01:19PM 35.2903 -119.6692 145° Southeast 437 503 33,000 -960 Descending Los Angeles Center
01:20PM 35.1881 -119.5822 145° Southeast 442 509 32,000 -960 Descending Los Angeles Center
01:21PM 35.0850 -119.4950 145° Southeast 448 516 31,100 -1,140 Descending Los Angeles Center
01:23PM 34.9644 -119.3944 146° Southeast 441 507 29,700 -1,140 Descending Los Angeles Center
01:24PM 34.8675 -119.3122 145° Southeast 431 496 28,800 -1,260 Descending Los Angeles Center
01:25PM 34.7711 -119.2289 145° Southeast 426 490 27,100 -2,040 Descending Los Angeles Center
01:26PM 34.6742 -119.1492 146° Southeast 423 487 24,700 -2,340 Descending Los Angeles Center
01:27PM 34.5817 -119.0678 144° Southeast 410 472 22,300 -2,280 Descending Los Angeles Center
01:28PM 34.4928 -118.9942 146° Southeast 387 445 20,000 -2,220 Descending Los Angeles Center
01:29PM 34.4061 -118.9225 146° Southeast 378 435 17,800 -2,400 Descending Los Angeles Center
01:30PM 34.3000 -118.8592 154° Southeast 356 410 15,100 -2,340 Descending Los Angeles Center
01:31PM 34.2078 -118.8269 164° South 348 400 13,000 -1,920 Descending Los Angeles Center
01:32PM 34.1192 -118.7944 163° South 335 386 11,100 -1,440 Descending Los Angeles Center
01:33PM 34.0394 -118.7372 149° Southeast 319 367 10,000 -780 Descending Los Angeles Center
01:34PM 34.0272 -118.6308 98° East 297 342 9,600 -1,020 Descending Los Angeles Center
01:35PM 34.0169 -118.5314 97° East 298 343 8,000 -1,320 Descending Los Angeles Center
01:36PM 34.0164 -118.4369 90° East 278 320 6,900 -720 Descending Los Angeles Center
01:37PM 34.0222 -118.3581 85° East 241 277 6,600 -780 Descending Los Angeles Center
01:38PM 34.0267 -118.2911 85° East 210 242 5,400 -1,500 Descending Los Angeles Center
01:39PM 34.0011 -118.2517 128° Southeast 201 231 3,600 -1,560 Descending Los Angeles Center
01:40PM 33.9650 -118.2856 218° Southwest 182 209 2,200 -1,260 Descending Los Angeles Center
01:41PM 33.9581 -118.3436 262° West 156 180 1,100 -900 Descending Los Angeles Center
01:42PM 33.9544 -118.3897 265° West 146 168 400 -420 Descending Los Angeles Center
01:43PM 33.9486 -118.4344 261° West 144 166 300 -120 Descending Los Angeles Center
01:45PM 33.9425 -118.4081 90° East  Level Estimated
01:52PM 33.9425 -118.4081 228° Southwest  Level Estimated